Airfield :
LOGIN :

Register | Disclaimer

   EN    FR    IT 

 










Legend :    VFR   Marginal VFR   IFR   Intensive IFR   Very Intensive IFR
Visi :
Ceiling :
>= 8 km
>= 3000ft
5 to 8 km
1000 to 3000 ft
1500m to 5 km
500 to 1000 ft
800 to 1500m
200 to 500 ft
< 800m
< 200 ft
Symbols :   Thunderstorms  Fog  Heavy snow  Heavy precipitations  Wind > 20 kt
SIGMETs :     Misc.  Thunderstorms  Icing  Turbulence  Mountain Waves  Volcanic Ashes






- Airport Elevation : 1649 ft
- IATA code : HHN


EDFH - Frankfurt-Hahn Rhineland-Palatinate

CURRENT METAR :
  • 011320Z 29010KT 240V320 9999 SCT030 18/10 Q1011

EXPIRED METARs :
  • 011250Z 30010KT 250V330 9999 SCT025 18/10 Q1011
  • 011220Z 29012KT 260V320 9999 SCT027 17/11 Q1011
  • 011150Z 28012KT 250V320 9999 SCT025 17/11 Q1011
  • 011120Z 28011KT 240V310 9999 SCT030 17/10 Q1011
  • 011050Z 28012KT 250V310 9999 SCT024 17/11 Q1011

TAF TAF EDFH
Valid from the 01 at 12:00 until the 02 at 12:00 UTC


011100Z 0112/0212 27010KT 9999 SCT020
PROB30
TEMPO 0112/0119 SHRA BKN014CB
BECMG 0122/0124 26005KT
TEMPO 0202/0208 BKN006
TEMPO 0210/0212 SHRA BKN012CB
PROB30
TEMPO 0211/0212 TSRA



MET'MAP, your aeronautical weather chart ! - Copyright ORBIFLY December 2007 - Disclaimer

ORBIFLY MET'MAP TEAM :

Programming & Development : Alexandra Zaïnal
Concept & original design : Baudouin d'Aumeries
Assistance for programming : Marc-Olivier Méhu
Technical & hardware support : Manuel Goepfert

Contact : metmap@orbifly.com




SOURCES & CREDITS :

   NOAA